Time;durP1;ratioP1;P1;durP2;ratioP2;P2;SDS_P1;SDS_P2;PMS_P1;PMS_P2;Temp;Humidity;BMP_temperature;BMP_pressure;BME280_temperature;BME280_humidity;BME280_pressure;Samples;Min_cycle;Max_cycle;Signal;HPM_P1;HPM_P2
2023/04/17 00:01:22;;;;;;;8.10;5.13;;;17.80;79.30;;;;;;4901726;29;45273;-73
2023/04/17 00:03:51;;;;;;;7.10;4.90;;;17.80;79.40;;;;;;4904501;29;45222;-73
2023/04/17 00:06:17;;;;;;;7.95;5.35;;;17.80;79.30;;;;;;4898948;29;45268;-73
2023/04/17 00:08:45;;;;;;;6.43;4.70;;;17.80;79.40;;;;;;4894125;29;45517;-73
2023/04/17 00:11:11;;;;;;;6.07;4.68;;;17.80;79.40;;;;;;4898328;29;47393;-73
2023/04/17 00:13:38;;;;;;;9.07;5.00;;;17.80;79.40;;;;;;4891264;29;45252;-73
2023/04/17 00:16:09;;;;;;;7.32;5.50;;;17.80;80.10;;;;;;4891879;29;45119;-73
2023/04/17 00:18:36;;;;;;;9.23;5.20;;;17.80;79.50;;;;;;4903522;29;45585;-72
2023/04/17 00:21:03;;;;;;;8.68;4.95;;;17.80;80.50;;;;;;4894584;29;47512;-73
2023/04/17 00:23:29;;;;;;;7.78;5.22;;;17.80;80.40;;;;;;4879707;29;45244;-73
2023/04/17 00:25:56;;;;;;;9.55;5.32;;;17.80;80.70;;;;;;4903567;29;45384;-73
2023/04/17 00:28:23;;;;;;;7.30;5.20;;;17.80;81.00;;;;;;4899077;29;45522;-73
2023/04/17 00:30:50;;;;;;;8.32;5.70;;;17.80;81.40;;;;;;4903264;29;47105;-73
2023/04/17 00:33:18;;;;;;;9.77;5.05;;;17.80;82.10;;;;;;4892459;29;45395;-73
2023/04/17 00:35:45;;;;;;;8.38;5.20;;;17.80;81.80;;;;;;4891384;29;45227;-73
2023/04/17 00:38:12;;;;;;;11.50;5.57;;;17.80;81.60;;;;;;4898944;29;45508;-73
2023/04/17 00:40:38;;;;;;;8.57;4.70;;;17.80;81.40;;;;;;4903569;29;45303;-73
2023/04/17 00:43:06;;;;;;;7.25;5.65;;;17.80;80.60;;;;;;4909724;29;45294;-73
2023/04/17 00:45:34;;;;;;;8.52;5.50;;;17.80;80.70;;;;;;4909494;29;45324;-73
2023/04/17 00:48:03;;;;;;;8.88;5.15;;;17.80;80.80;;;;;;4894553;29;45239;-72
2023/04/17 00:50:32;;;;;;;10.43;4.75;;;17.80;80.60;;;;;;4902153;29;47044;-73
2023/04/17 00:52:59;;;;;;;7.05;4.72;;;17.80;80.60;;;;;;4902235;29;45353;-73
2023/04/17 00:55:27;;;;;;;7.80;5.20;;;17.80;80.10;;;;;;4891032;29;45272;-73
2023/04/17 00:57:55;;;;;;;8.18;5.50;;;17.80;80.40;;;;;;4898527;29;45208;-73
2023/04/17 01:00:21;;;;;;;8.82;5.32;;;17.80;80.50;;;;;;4903169;29;47325;-73
2023/04/17 01:02:48;;;;;;;9.50;5.60;;;17.80;80.60;;;;;;4901599;28;45154;-73
2023/04/17 01:05:15;;;;;;;9.88;5.28;;;17.80;81.60;;;;;;4909589;29;45207;-73
2023/04/17 01:07:45;;;;;;;9.55;5.30;;;17.80;81.70;;;;;;4896625;29;45135;-73
2023/04/17 01:10:12;;;;;;;7.70;4.75;;;17.80;82.10;;;;;;4890447;29;47445;-73
2023/04/17 01:12:39;;;;;;;10.43;5.30;;;17.80;82.10;;;;;;4890193;29;45656;-73
2023/04/17 01:15:06;;;;;;;9.98;5.45;;;17.80;82.00;;;;;;4890146;29;45292;-73
2023/04/17 01:17:33;;;;;;;8.70;5.32;;;17.80;82.90;;;;;;4894175;29;45541;-73
2023/04/17 01:20:00;;;;;;;7.32;5.68;;;17.80;82.60;;;;;;4901345;29;46877;-73
2023/04/17 01:22:26;;;;;;;7.80;5.35;;;17.80;82.90;;;;;;4898324;29;45343;-72
2023/04/17 01:24:54;;;;;;;9.02;5.65;;;17.80;82.60;;;;;;4896596;29;45223;-73
2023/04/17 01:27:21;;;;;;;7.63;4.85;;;17.80;82.00;;;;;;4906467;29;45350;-73
2023/04/17 01:29:48;;;;;;;8.35;5.63;;;17.80;81.50;;;;;;4895900;29;46341;-72
2023/04/17 01:32:15;;;;;;;9.70;5.07;;;17.80;82.70;;;;;;4908535;29;45202;-73
2023/04/17 01:34:42;;;;;;;8.07;4.82;;;17.80;81.50;;;;;;4896327;29;45361;-73
2023/04/17 01:37:09;;;;;;;7.35;5.10;;;17.80;81.70;;;;;;4892419;29;45406;-73
2023/04/17 01:39:36;;;;;;;7.18;5.35;;;17.80;81.20;;;;;;4904022;29;46830;-73
2023/04/17 01:42:05;;;;;;;8.10;5.28;;;17.80;81.30;;;;;;4897230;29;45208;-73
2023/04/17 01:44:32;;;;;;;7.75;5.57;;;17.80;80.80;;;;;;4909463;29;45175;-73
2023/04/17 01:46:59;;;;;;;7.72;5.80;;;17.80;81.00;;;;;;4901542;29;45445;-73
2023/04/17 01:49:26;;;;;;;6.90;4.70;;;17.80;81.80;;;;;;4889829;29;47435;-72
2023/04/17 01:51:52;;;;;;;8.52;5.63;;;17.80;82.20;;;;;;4904530;29;45163;-71
2023/04/17 01:54:20;;;;;;;8.10;5.57;;;17.80;82.80;;;;;;4904269;29;45361;-72
2023/04/17 01:56:46;;;;;;;6.88;5.05;;;17.80;82.90;;;;;;4889751;29;45431;-73
2023/04/17 01:59:14;;;;;;;9.23;5.57;;;17.80;82.80;;;;;;4889895;29;46427;-72
2023/04/17 02:01:41;;;;;;;12.05;6.15;;;17.90;83.10;;;;;;4897157;29;46146;-72
2023/04/17 02:04:08;;;;;;;5.85;4.85;;;17.90;82.90;;;;;;4890003;29;45132;-72
2023/04/17 02:06:35;;;;;;;9.68;6.00;;;17.80;83.30;;;;;;4889844;29;45317;-73
2023/04/17 02:09:02;;;;;;;8.93;6.20;;;17.80;82.80;;;;;;4889372;29;46776;-73
2023/04/17 02:11:29;;;;;;;9.45;6.10;;;17.80;82.20;;;;;;4889408;29;46011;-72
2023/04/17 02:13:56;;;;;;;9.13;6.00;;;17.80;81.10;;;;;;4892874;29;45276;-73
2023/04/17 02:16:24;;;;;;;10.07;6.10;;;17.80;81.50;;;;;;4904864;29;45282;-73
2023/04/17 02:18:51;;;;;;;9.15;5.95;;;17.80;82.00;;;;;;4895063;29;47101;-73
2023/04/17 02:21:18;;;;;;;12.02;6.72;;;17.80;81.40;;;;;;4892030;29;45255;-73
2023/04/17 02:23:45;;;;;;;9.52;5.78;;;17.80;81.20;;;;;;4906533;29;45316;-73
2023/04/17 02:26:12;;;;;;;9.23;6.10;;;17.80;81.60;;;;;;4889383;29;45417;-73
2023/04/17 02:28:39;;;;;;;10.18;6.20;;;17.80;81.10;;;;;;4888938;29;48330;-73
2023/04/17 02:31:08;;;;;;;7.60;5.97;;;17.80;81.50;;;;;;4896846;29;45319;-73
2023/04/17 02:33:36;;;;;;;8.25;5.78;;;17.80;81.30;;;;;;4889352;29;45272;-73
2023/04/17 02:36:04;;;;;;;10.90;5.95;;;17.80;82.20;;;;;;4908224;29;45179;-73
2023/04/17 02:38:31;;;;;;;9.25;6.53;;;17.80;82.70;;;;;;4888907;29;46313;-73
2023/04/17 02:40:58;;;;;;;10.85;6.40;;;17.80;82.90;;;;;;4896347;29;45552;-72
2023/04/17 02:43:25;;;;;;;8.38;6.68;;;17.80;83.10;;;;;;4896216;29;45377;-72
2023/04/17 02:45:51;;;;;;;11.07;6.72;;;17.80;84.40;;;;;;4898319;29;45378;-72
2023/04/17 02:48:18;;;;;;;11.30;6.20;;;17.90;83.90;;;;;;4895535;29;46648;-72
2023/04/17 02:50:47;;;;;;;10.55;6.25;;;17.80;83.80;;;;;;4887525;29;45425;-73
2023/04/17 02:53:13;;;;;;;10.75;7.10;;;17.90;84.90;;;;;;4887700;29;45447;-73
2023/04/17 02:55:40;;;;;;;11.50;6.55;;;17.90;83.80;;;;;;4895686;29;45279;-72
2023/04/17 02:58:07;;;;;;;9.50;6.45;;;17.90;83.40;;;;;;4901222;29;46426;-73
2023/04/17 03:00:34;;;;;;;12.63;7.15;;;17.80;83.10;;;;;;4891057;29;45278;-72
2023/04/17 03:03:01;;;;;;;12.05;6.55;;;17.90;82.90;;;;;;4906690;29;45459;-73
2023/04/17 03:05:29;;;;;;;9.80;7.03;;;17.80;82.90;;;;;;4903565;29;45325;-72
2023/04/17 03:07:58;;;;;;;11.40;7.18;;;17.90;82.70;;;;;;4898426;29;45724;-73
2023/04/17 03:10:25;;;;;;;12.82;7.40;;;17.80;82.60;;;;;;4892402;29;45419;-73
2023/04/17 03:12:51;;;;;;;8.77;6.57;;;17.80;82.50;;;;;;4898338;29;45329;-73
2023/04/17 03:15:18;;;;;;;9.60;6.93;;;17.80;82.60;;;;;;4900944;29;45342;-73
2023/04/17 03:17:45;;;;;;;11.85;7.63;;;17.80;82.20;;;;;;4905167;29;45274;-72
2023/04/17 03:20:14;;;;;;;11.07;7.25;;;17.80;83.70;;;;;;4901812;29;45324;-73
2023/04/17 03:22:41;;;;;;;14.23;7.80;;;17.80;84.50;;;;;;4891893;29;45358;-73
2023/04/17 03:25:10;;;;;;;11.95;7.93;;;17.80;84.90;;;;;;4902314;29;45304;-73
2023/04/17 03:27:37;;;;;;;11.30;8.15;;;17.80;84.70;;;;;;4904077;29;47374;-73
2023/04/17 03:30:05;;;;;;;11.15;7.85;;;17.80;85.20;;;;;;4894956;29;45225;-73
2023/04/17 03:32:32;;;;;;;11.57;8.13;;;17.80;84.80;;;;;;4903471;29;45253;-73
2023/04/17 03:34:58;;;;;;;13.30;8.00;;;17.80;85.50;;;;;;4911012;29;45447;-72
2023/04/17 03:37:25;;;;;;;16.13;9.00;;;17.80;85.50;;;;;;4903512;29;48283;-72
2023/04/17 03:39:52;;;;;;;11.85;8.55;;;17.80;85.10;;;;;;4912956;29;45246;-72
2023/04/17 03:42:20;;;;;;;13.05;8.80;;;17.80;85.10;;;;;;4892953;29;45464;-72
2023/04/17 03:44:47;;;;;;;12.43;8.00;;;17.80;84.80;;;;;;4905263;29;45253;-73
2023/04/17 03:47:13;;;;;;;12.57;8.40;;;17.80;84.20;;;;;;4894863;29;47782;-72
2023/04/17 03:49:40;;;;;;;13.05;8.82;;;17.80;84.00;;;;;;4911087;29;45266;-72
2023/04/17 03:52:07;;;;;;;12.57;8.57;;;17.80;83.70;;;;;;4894647;29;45247;-72
2023/04/17 03:54:34;;;;;;;12.15;8.60;;;17.80;83.30;;;;;;4895834;29;45309;-72
2023/04/17 03:57:02;;;;;;;12.25;8.93;;;17.80;83.40;;;;;;4903015;29;45467;-72
2023/04/17 03:59:31;;;;;;;13.98;8.35;;;17.80;82.30;;;;;;4894595;29;45653;-73
2023/04/17 04:01:58;;;;;;;13.43;8.70;;;17.80;82.90;;;;;;4910085;29;45219;-72
2023/04/17 04:04:24;;;;;;;14.93;8.50;;;17.80;82.80;;;;;;4910154;29;45318;-72
2023/04/17 04:06:53;;;;;;;14.93;8.82;;;17.80;84.20;;;;;;4910284;29;48036;-72
2023/04/17 04:09:20;;;;;;;13.68;8.90;;;17.80;84.80;;;;;;4908375;29;45243;-72
2023/04/17 04:11:46;;;;;;;15.65;9.73;;;17.80;84.90;;;;;;4891390;29;45199;-72
2023/04/17 04:14:13;;;;;;;13.38;8.85;;;17.80;85.10;;;;;;4900667;29;45392;-72
2023/04/17 04:16:41;;;;;;;11.48;8.50;;;17.80;85.00;;;;;;4897447;29;45283;-72
2023/04/17 04:19:08;;;;;;;13.25;9.27;;;17.80;85.10;;;;;;4890900;29;45274;-72
2023/04/17 04:21:35;;;;;;;14.98;9.63;;;17.80;85.80;;;;;;4905668;29;45335;-72
2023/04/17 04:24:02;;;;;;;12.40;8.70;;;17.80;85.50;;;;;;4891288;29;45295;-72
2023/04/17 04:26:30;;;;;;;14.65;9.05;;;17.80;85.30;;;;;;4894124;29;48659;-72
2023/04/17 04:28:59;;;;;;;15.75;9.68;;;17.80;85.00;;;;;;4910185;29;45268;-72
2023/04/17 04:31:28;;;;;;;14.13;9.50;;;17.80;84.30;;;;;;4912737;29;45216;-72
2023/04/17 04:33:57;;;;;;;14.93;9.52;;;17.80;84.30;;;;;;4898985;29;45626;-72
2023/04/17 04:36:24;;;;;;;16.90;10.77;;;17.80;83.90;;;;;;4891157;29;47987;-72
2023/04/17 04:38:51;;;;;;;14.55;9.43;;;17.80;83.50;;;;;;4904798;29;45272;-72
2023/04/17 04:41:18;;;;;;;13.60;9.63;;;17.80;83.20;;;;;;4901090;29;45139;-72
2023/04/17 04:43:45;;;;;;;14.55;9.45;;;17.80;83.10;;;;;;4904146;29;45352;-72
2023/04/17 04:46:12;;;;;;;14.23;10.05;;;17.80;82.70;;;;;;4904343;29;46319;-72
2023/04/17 04:48:39;;;;;;;14.85;10.20;;;17.80;82.70;;;;;;4898636;29;45361;-72
2023/04/17 04:51:07;;;;;;;17.20;11.00;;;17.80;84.10;;;;;;4906356;29;45332;-72
2023/04/17 04:53:34;;;;;;;15.60;9.95;;;17.80;84.50;;;;;;4890507;29;45408;-72
2023/04/17 04:56:01;;;;;;;16.80;10.07;;;17.80;85.10;;;;;;4898007;29;45465;-72
2023/04/17 04:58:29;;;;;;;17.73;11.88;;;17.80;85.00;;;;;;4901325;29;45481;-72
2023/04/17 05:00:56;;;;;;;16.02;10.70;;;17.80;85.30;;;;;;4909635;29;45233;-72
2023/04/17 05:03:23;;;;;;;15.38;11.35;;;17.80;85.50;;;;;;4908884;29;45386;-72
2023/04/17 05:05:50;;;;;;;16.05;10.48;;;17.80;85.70;;;;;;4895276;29;48007;-72
2023/04/17 05:08:19;;;;;;;18.15;11.52;;;17.80;85.60;;;;;;4903676;29;45414;-72
2023/04/17 05:10:45;;;;;;;15.68;10.27;;;17.80;85.20;;;;;;4909412;29;45186;-72
2023/04/17 05:13:12;;;;;;;16.00;10.45;;;17.80;84.90;;;;;;4899778;29;45188;-72
2023/04/17 05:15:40;;;;;;;15.75;10.23;;;17.80;84.30;;;;;;4898245;29;46830;-72
2023/04/17 05:18:07;;;;;;;14.73;10.20;;;17.80;83.60;;;;;;4896594;29;45370;-72
2023/04/17 05:20:35;;;;;;;16.67;10.90;;;17.80;83.40;;;;;;4902650;29;45408;-72
2023/04/17 05:23:01;;;;;;;15.18;10.40;;;17.80;83.90;;;;;;4910783;29;45137;-71
2023/04/17 05:25:29;;;;;;;15.55;10.52;;;17.80;83.30;;;;;;4908544;29;47493;-72
2023/04/17 05:27:56;;;;;;;19.33;10.60;;;17.80;83.70;;;;;;4899360;29;45441;-72
2023/04/17 05:30:23;;;;;;;14.90;10.25;;;17.80;83.60;;;;;;4900790;29;45213;-72
2023/04/17 05:32:50;;;;;;;15.93;10.65;;;17.80;83.50;;;;;;4909351;29;45213;-72
2023/04/17 05:35:17;;;;;;;18.95;11.60;;;17.80;82.00;;;;;;4907553;29;47799;-72
2023/04/17 05:37:44;;;;;;;17.27;10.35;;;17.80;82.50;;;;;;4890460;29;45374;-72
2023/04/17 05:40:12;;;;;;;19.63;11.43;;;17.80;82.50;;;;;;4890260;29;45370;-72
2023/04/17 05:42:40;;;;;;;18.92;11.48;;;17.70;82.60;;;;;;4894852;29;45671;-71
2023/04/17 05:45:12;;;;;;;15.90;10.65;;;17.80;82.30;;;;;;4895717;29;47281;-71
2023/04/17 05:47:38;;;;;;;18.15;11.52;;;17.80;82.30;;;;;;4889879;29;45285;-72
2023/04/17 05:50:07;;;;;;;18.52;12.15;;;17.80;81.80;;;;;;4897048;29;45351;-72
2023/04/17 05:52:33;;;;;;;17.77;11.25;;;17.70;80.60;;;;;;4902861;29;45201;-72
2023/04/17 05:55:00;;;;;;;20.15;12.40;;;17.70;80.90;;;;;;4905394;29;45377;-71
2023/04/17 05:57:27;;;;;;;17.92;12.15;;;17.70;80.60;;;;;;4905817;29;45206;-72
2023/04/17 05:59:55;;;;;;;20.55;12.73;;;17.70;79.90;;;;;;4889607;29;45315;-71
2023/04/17 06:02:22;;;;;;;21.42;12.68;;;17.70;80.10;;;;;;4889950;29;45388;-72
2023/04/17 06:04:50;;;;;;;22.00;13.52;;;17.70;80.00;;;;;;4890288;29;46455;-72
2023/04/17 06:07:17;;;;;;;18.58;12.13;;;17.70;79.20;;;;;;4890367;29;45260;-72
2023/04/17 06:09:44;;;;;;;20.45;13.45;;;17.70;79.60;;;;;;4890308;29;45245;-72
2023/04/17 06:12:14;;;;;;;20.00;13.55;;;17.60;78.30;;;;;;4899447;29;45307;-71
2023/04/17 06:14:42;;;;;;;22.05;13.57;;;17.60;77.90;;;;;;4894772;29;47621;-71
2023/04/17 06:17:11;;;;;;;20.55;13.23;;;17.60;78.20;;;;;;4892110;29;45242;-72
2023/04/17 06:19:38;;;;;;;20.13;13.48;;;17.70;78.60;;;;;;4888216;29;45358;-71
2023/04/17 06:22:04;;;;;;;21.65;13.85;;;17.70;81.20;;;;;;4895460;29;45342;-71
2023/04/17 06:24:31;;;;;;;23.20;14.63;;;17.70;81.30;;;;;;4885499;29;45956;-71
2023/04/17 06:26:58;;;;;;;22.77;13.63;;;17.70;81.70;;;;;;4894477;29;45424;-71
2023/04/17 06:29:25;;;;;;;22.67;14.48;;;17.70;82.10;;;;;;4888264;29;45337;-72
2023/04/17 06:31:51;;;;;;;24.25;14.85;;;17.70;82.10;;;;;;4887232;29;45427;-71
2023/04/17 06:34:20;;;;;;;20.58;13.63;;;17.70;82.30;;;;;;4896137;29;45405;-71
2023/04/17 06:36:47;;;;;;;18.02;12.30;;;17.70;82.60;;;;;;4885306;29;45363;-71
2023/04/17 06:39:14;;;;;;;20.55;13.40;;;17.80;82.40;;;;;;4883917;29;45484;-71
2023/04/17 06:41:41;;;;;;;21.20;13.48;;;17.80;82.70;;;;;;4886721;29;45681;-71
2023/04/17 06:44:07;;;;;;;21.88;13.70;;;17.80;81.90;;;;;;4883286;29;46617;-71
2023/04/17 06:46:34;;;;;;;21.58;13.23;;;17.80;82.30;;;;;;4887233;29;45296;-71
2023/04/17 06:49:01;;;;;;;18.60;12.30;;;17.80;81.90;;;;;;4887039;29;45441;-71
2023/04/17 06:51:29;;;;;;;18.58;12.00;;;17.80;81.70;;;;;;4888073;29;45675;-71
2023/04/17 06:53:56;;;;;;;17.58;12.05;;;17.70;82.00;;;;;;4886642;29;47250;-71
2023/04/17 06:56:23;;;;;;;19.63;12.88;;;17.70;81.80;;;;;;4886550;29;45367;-71
2023/04/17 06:58:50;;;;;;;18.65;12.02;;;17.70;81.70;;;;;;4887443;29;45355;-71
2023/04/17 07:01:16;;;;;;;19.52;11.77;;;17.70;81.70;;;;;;4894611;29;45403;-71
2023/04/17 07:03:43;;;;;;;18.27;12.38;;;17.80;82.00;;;;;;4894700;29;47007;-71
2023/04/17 07:06:10;;;;;;;19.70;11.93;;;17.80;82.50;;;;;;4894982;29;45468;-71
2023/04/17 07:08:38;;;;;;;17.17;11.48;;;17.80;82.40;;;;;;4887794;29;45272;-71
2023/04/17 07:11:06;;;;;;;17.80;11.00;;;17.80;82.40;;;;;;4897604;29;45565;-71
2023/04/17 07:13:32;;;;;;;17.13;11.60;;;17.80;82.50;;;;;;4895527;29;47795;-72
2023/04/17 07:16:00;;;;;;;16.73;11.43;;;17.80;83.60;;;;;;4887290;29;45232;-71
2023/04/17 07:18:28;;;;;;;15.50;10.38;;;17.80;83.00;;;;;;4890559;29;45399;-71
2023/04/17 07:20:55;;;;;;;16.88;11.20;;;17.80;83.30;;;;;;4887555;29;45275;-71
2023/04/17 07:23:22;;;;;;;17.30;11.55;;;17.80;83.10;;;;;;4893902;29;45432;-71
2023/04/17 07:25:50;;;;;;;16.23;11.27;;;17.80;82.90;;;;;;4898977;29;45378;-71
2023/04/17 07:28:17;;;;;;;16.00;11.07;;;17.80;81.70;;;;;;4898402;29;45334;-72
2023/04/17 07:30:44;;;;;;;15.13;10.30;;;17.80;81.30;;;;;;4906152;29;45187;-71
2023/04/17 07:33:11;;;;;;;14.85;10.60;;;17.80;81.20;;;;;;4889600;28;48405;-71
2023/04/17 07:35:37;;;;;;;17.50;11.23;;;17.80;80.80;;;;;;4886745;29;45375;-71
2023/04/17 07:38:04;;;;;;;12.85;9.73;;;17.80;81.30;;;;;;4892050;29;45455;-71
2023/04/17 07:40:32;;;;;;;14.32;10.50;;;17.80;81.20;;;;;;4887408;29;45512;-71
2023/04/17 07:43:00;;;;;;;16.17;10.27;;;17.80;81.00;;;;;;4887970;29;46331;-71
2023/04/17 07:45:27;;;;;;;14.95;9.90;;;17.80;81.60;;;;;;4888360;29;45463;-70
2023/04/17 07:47:54;;;;;;;14.50;10.23;;;17.80;81.70;;;;;;4892131;29;45360;-70
2023/04/17 07:50:21;;;;;;;14.65;10.10;;;17.80;82.70;;;;;;4889515;29;45650;-71
2023/04/17 07:52:48;;;;;;;13.38;10.15;;;17.80;83.00;;;;;;4889966;29;47197;-71
2023/04/17 07:55:15;;;;;;;12.68;9.85;;;17.80;83.10;;;;;;4891711;29;45777;-71
2023/04/17 07:57:42;;;;;;;12.93;9.70;;;17.80;83.30;;;;;;4891828;29;45488;-71
2023/04/17 08:00:12;;;;;;;13.02;9.82;;;17.80;83.40;;;;;;4892776;29;45541;-71
2023/04/17 08:02:38;;;;;;;14.63;10.00;;;17.80;83.50;;;;;;4887648;29;45476;-70
2023/04/17 08:05:06;;;;;;;13.43;10.35;;;17.80;83.40;;;;;;4885829;29;45392;-70
2023/04/17 08:07:33;;;;;;;14.13;9.80;;;17.80;83.50;;;;;;4890090;29;45443;-70
2023/04/17 08:10:00;;;;;;;13.65;10.00;;;17.80;83.00;;;;;;4888650;29;45433;-71
2023/04/17 08:12:27;;;;;;;14.05;10.05;;;17.80;82.70;;;;;;4885337;29;45536;-71
2023/04/17 08:14:53;;;;;;;14.50;10.00;;;17.80;82.30;;;;;;4888283;29;45969;-71
2023/04/17 08:17:24;;;;;;;12.40;9.32;;;17.80;81.70;;;;;;4890043;29;45544;-71
2023/04/17 08:19:52;;;;;;;13.45;9.60;;;17.80;82.00;;;;;;4896771;29;45438;-71
2023/04/17 08:22:20;;;;;;;11.65;9.05;;;17.80;82.30;;;;;;4886080;29;47607;-71
2023/04/17 08:24:48;;;;;;;15.82;9.95;;;17.80;82.60;;;;;;4894427;29;45445;-71
2023/04/17 08:27:14;;;;;;;15.40;9.50;;;17.80;82.10;;;;;;4890392;29;45366;-71
2023/04/17 08:29:42;;;;;;;13.77;9.48;;;17.80;81.60;;;;;;4894186;29;45461;-71
2023/04/17 08:32:09;;;;;;;14.60;9.82;;;17.80;82.10;;;;;;4891124;29;47246;-71
2023/04/17 08:34:37;;;;;;;14.27;9.77;;;17.80;82.40;;;;;;4888476;29;45325;-71
2023/04/17 08:37:05;;;;;;;13.90;9.43;;;17.80;82.30;;;;;;4888602;29;45432;-71
2023/04/17 08:39:31;;;;;;;13.30;9.32;;;17.80;83.10;;;;;;4896147;29;45300;-71
2023/04/17 08:42:00;;;;;;;12.48;8.98;;;17.80;83.30;;;;;;4887979;29;48111;-72
2023/04/17 08:44:27;;;;;;;13.18;9.25;;;17.80;83.20;;;;;;4887949;29;45358;-71
2023/04/17 08:46:57;;;;;;;11.57;8.73;;;17.80;83.30;;;;;;4889014;29;45425;-71
2023/04/17 08:49:27;;;;;;;12.25;8.88;;;17.80;83.40;;;;;;4891176;29;45383;-71
2023/04/17 08:51:55;;;;;;;13.13;10.10;;;17.80;83.40;;;;;;4894877;29;45294;-71
2023/04/17 08:54:22;;;;;;;13.10;8.82;;;17.80;83.30;;;;;;4897959;29;45370;-71
2023/04/17 08:56:49;;;;;;;14.70;8.65;;;17.80;82.30;;;;;;4896507;29;45392;-71
2023/04/17 08:59:16;;;;;;;13.30;8.70;;;17.80;82.30;;;;;;4888455;29;45456;-71
2023/04/17 09:02:01;;;;;;;12.48;8.40;;;17.80;82.10;;;;;;4886947;29;47969;-71
2023/04/17 09:04:36;;;;;;;10.40;7.45;;;17.80;81.50;;;;;;4895619;29;45814;-71
2023/04/17 09:07:05;;;;;;;12.50;8.27;;;17.80;81.70;;;;;;4887787;29;45349;-71
2023/04/17 09:09:49;;;;;;;10.95;8.00;;;17.80;81.90;;;;;;4889096;29;45352;-71
2023/04/17 09:12:16;;;;;;;11.82;8.50;;;17.80;81.60;;;;;;4885690;29;47283;-71
2023/04/17 09:14:43;;;;;;;11.07;7.63;;;17.80;81.30;;;;;;4887472;29;45456;-71
2023/04/17 09:17:10;;;;;;;13.55;7.35;;;17.80;81.60;;;;;;4904199;29;45267;-71
2023/04/17 09:19:37;;;;;;;11.20;8.80;;;17.80;82.20;;;;;;4889215;29;45242;-71
2023/04/17 09:22:21;;;;;;;9.60;7.53;;;17.80;82.80;;;;;;4895256;29;45347;-71
2023/04/17 09:24:48;;;;;;;10.98;8.10;;;17.80;82.20;;;;;;4890041;29;45437;-67
2023/04/17 09:27:22;;;;;;;13.02;7.40;;;17.90;82.90;;;;;;4888706;29;45387;-71
2023/04/17 09:30:02;;;;;;;9.25;7.45;;;17.90;83.30;;;;;;4891273;29;45211;-70
2023/04/17 09:32:31;;;;;;;11.77;7.43;;;17.90;82.80;;;;;;4893864;29;47520;-71
2023/04/17 09:35:00;;;;;;;9.70;7.22;;;17.90;82.90;;;;;;4909846;29;45394;-71
2023/04/17 09:37:50;;;;;;;8.88;6.82;;;17.90;84.10;;;;;;4909993;29;45317;-71
2023/04/17 09:40:18;;;;;;;10.93;6.88;;;17.90;83.20;;;;;;4907909;29;45282;-70
2023/04/17 09:42:56;;;;;;;11.30;7.22;;;17.90;83.30;;;;;;4894952;29;47733;-70
2023/04/17 09:45:23;;;;;;;10.23;6.68;;;17.90;83.30;;;;;;4890742;29;45241;-71
2023/04/17 09:47:51;;;;;;;8.82;6.47;;;17.90;83.10;;;;;;4893619;29;45217;-72
2023/04/17 09:50:21;;;;;;;8.82;6.25;;;17.90;82.90;;;;;;4891169;29;45221;-71
2023/04/17 09:52:51;;;;;;;12.50;6.30;;;17.90;82.50;;;;;;4890257;29;46273;-70
2023/04/17 09:55:21;;;;;;;8.70;6.20;;;17.90;82.20;;;;;;4891514;29;45398;-70
2023/04/17 09:57:49;;;;;;;8.57;6.30;;;17.90;82.00;;;;;;4902856;29;45292;-70
2023/04/17 10:00:19;;;;;;;8.40;6.28;;;17.90;82.20;;;;;;4889751;29;45207;-71
2023/04/17 10:02:50;;;;;;;7.90;5.90;;;17.90;81.80;;;;;;4889149;29;46388;-70
2023/04/17 10:05:17;;;;;;;9.95;6.30;;;17.90;81.70;;;;;;4890643;29;45348;-71
2023/04/17 10:07:45;;;;;;;7.32;5.50;;;17.90;82.10;;;;;;4903115;29;45311;-71
2023/04/17 10:10:22;;;;;;;7.45;5.30;;;17.90;80.90;;;;;;4892756;29;45325;-70
2023/04/17 10:12:50;;;;;;;7.28;5.30;;;17.90;80.40;;;;;;4883574;29;46310;-71
2023/04/17 10:15:17;;;;;;;7.72;5.72;;;18.00;81.90;;;;;;4898702;29;45333;-71
2023/04/17 10:17:45;;;;;;;6.93;5.30;;;18.00;82.10;;;;;;4903351;29;45379;-70
2023/04/17 10:20:34;;;;;;;6.75;5.18;;;18.00;82.40;;;;;;4905412;29;45327;-70
2023/04/17 10:23:31;;;;;;;8.40;5.50;;;18.00;82.20;;;;;;4889763;29;45240;-70
2023/04/17 10:26:40;;;;;;;9.55;5.25;;;18.00;82.50;;;;;;4896435;29;45384;-71
2023/04/17 10:29:09;;;;;;;8.68;5.93;;;18.00;82.30;;;;;;4902829;29;45234;-71
2023/04/17 10:32:09;;;;;;;9.45;5.43;;;18.00;81.90;;;;;;4902202;29;45165;-70
2023/04/17 10:34:36;;;;;;;5.47;4.45;;;18.00;81.70;;;;;;4878429;29;45639;-70
2023/04/17 10:37:03;;;;;;;5.95;4.75;;;18.00;81.20;;;;;;4908466;29;45259;-71
2023/04/17 10:39:50;;;;;;;5.82;4.35;;;18.00;80.80;;;;;;4905694;29;45224;-70
2023/04/17 10:42:19;;;;;;;6.57;4.80;;;18.00;80.50;;;;;;4890175;29;45181;-71
2023/04/17 10:44:48;;;;;;;6.45;4.80;;;18.00;80.30;;;;;;4897194;29;47344;-71
2023/04/17 10:47:15;;;;;;;7.07;4.63;;;18.00;80.30;;;;;;4889627;29;45313;-71
2023/04/17 10:49:53;;;;;;;5.72;4.40;;;18.00;80.30;;;;;;4889782;29;45228;-70
2023/04/17 10:52:40;;;;;;;7.45;4.55;;;18.00;80.30;;;;;;4889409;29;45433;-70
2023/04/17 10:55:08;;;;;;;7.10;4.78;;;18.00;80.10;;;;;;4889455;29;47202;-70
2023/04/17 10:57:54;;;;;;;7.82;4.30;;;18.00;80.50;;;;;;4893347;29;45274;-71
2023/04/17 11:00:33;;;;;;;6.18;4.18;;;18.00;80.90;;;;;;4897143;29;45604;-68
2023/04/17 11:03:00;;;;;;;5.20;3.88;;;18.00;81.30;;;;;;4892331;29;45317;-70
2023/04/17 11:05:27;;;;;;;7.90;4.25;;;18.00;81.10;;;;;;4898624;29;45485;-70
2023/04/17 11:07:54;;;;;;;5.60;4.28;;;18.00;80.50;;;;;;4895547;29;45389;-70
2023/04/17 11:10:22;;;;;;;6.97;4.43;;;18.00;80.70;;;;;;4895011;29;45227;-70
2023/04/17 11:12:52;;;;;;;5.25;3.95;;;18.00;81.10;;;;;;4888524;29;45473;-70
2023/04/17 11:15:27;;;;;;;5.55;3.95;;;18.00;80.60;;;;;;4908436;29;47117;-70
2023/04/17 11:17:55;;;;;;;4.35;3.72;;;18.00;80.70;;;;;;4911202;29;45286;-70
2023/04/17 11:20:23;;;;;;;5.03;3.70;;;18.00;80.60;;;;;;4892344;29;45223;-70
2023/04/17 11:22:50;;;;;;;5.07;3.88;;;18.00;80.40;;;;;;4906175;29;45408;-71
2023/04/17 11:25:22;;;;;;;5.35;3.72;;;18.00;80.40;;;;;;4911061;29;46304;-70
2023/04/17 11:27:51;;;;;;;5.05;3.45;;;18.00;79.60;;;;;;4911607;29;45392;-70
2023/04/17 11:30:28;;;;;;;5.72;4.07;;;18.00;78.00;;;;;;4911442;29;45315;-70
2023/04/17 11:32:57;;;;;;;4.43;3.28;;;18.00;77.30;;;;;;4903700;29;45278;-69
2023/04/17 11:35:27;;;;;;;4.75;3.70;;;18.00;76.50;;;;;;4911415;29;45282;-70
2023/04/17 11:38:12;;;;;;;4.75;3.45;;;18.00;76.50;;;;;;4908442;29;45217;-70
2023/04/17 11:40:47;;;;;;;5.30;3.67;;;18.10;76.60;;;;;;4897912;29;45414;-70
2023/04/17 11:43:14;;;;;;;5.88;3.28;;;18.10;76.60;;;;;;4898925;29;45429;-70
2023/04/17 11:45:44;;;;;;;4.68;3.35;;;18.10;76.60;;;;;;4891506;29;46206;-70
2023/04/17 11:48:12;;;;;;;3.53;3.00;;;18.10;76.60;;;;;;4892283;29;45309;-70
2023/04/17 11:50:40;;;;;;;15.65;3.95;;;18.10;76.60;;;;;;4895651;29;45406;-67
2023/04/17 11:53:07;;;;;;;9.20;3.53;;;18.20;79.30;;;;;;4885854;29;45274;-67
2023/04/17 11:55:34;;;;;;;4.55;3.08;;;18.20;78.60;;;;;;4888482;29;47116;-67
2023/04/17 11:58:05;;;;;;;4.40;3.13;;;18.20;77.90;;;;;;4887671;29;45641;-69
2023/04/17 12:00:32;;;;;;;4.25;3.08;;;18.20;76.70;;;;;;4888208;29;45578;-69
2023/04/17 12:03:02;;;;;;;4.28;3.00;;;18.20;78.10;;;;;;4887300;29;45372;-70
2023/04/17 12:05:30;;;;;;;4.57;3.30;;;18.20;78.10;;;;;;4891323;29;45507;-70
2023/04/17 12:08:01;;;;;;;4.57;3.20;;;18.20;78.20;;;;;;4893021;29;45279;-69
2023/04/17 12:10:42;;;;;;;5.63;3.50;;;18.10;78.20;;;;;;4889492;29;45448;-69
2023/04/17 12:13:09;;;;;;;4.25;2.90;;;18.10;77.90;;;;;;4893893;29;45426;-69
2023/04/17 12:15:36;;;;;;;6.97;3.15;;;18.10;77.80;;;;;;4899506;29;48213;-69
2023/04/17 12:18:07;;;;;;;3.22;2.88;;;18.10;77.60;;;;;;4889133;29;45353;-69
2023/04/17 12:20:35;;;;;;;5.10;3.05;;;18.10;77.10;;;;;;4888872;29;45565;-69
2023/04/17 12:23:02;;;;;;;4.95;3.33;;;18.10;77.30;;;;;;4887863;29;45502;-69
2023/04/17 12:25:29;;;;;;;3.15;2.58;;;18.10;77.10;;;;;;4890220;29;47055;-69
2023/04/17 12:27:58;;;;;;;3.70;2.95;;;18.10;77.70;;;;;;4888742;29;45310;-69
2023/04/17 12:30:25;;;;;;;4.85;2.78;;;18.10;76.80;;;;;;4888302;29;45367;-69
2023/04/17 12:32:52;;;;;;;3.42;2.40;;;18.10;76.60;;;;;;4889030;29;45452;-69
2023/04/17 12:35:21;;;;;;;2.92;2.50;;;18.20;76.60;;;;;;4886710;29;46251;-69
2023/04/17 12:37:50;;;;;;;3.50;2.53;;;18.20;76.70;;;;;;4888699;29;45279;-69
2023/04/17 12:40:17;;;;;;;3.58;2.72;;;18.20;76.70;;;;;;4888794;29;45322;-69
2023/04/17 12:42:45;;;;;;;3.20;2.50;;;18.20;76.20;;;;;;4888542;29;45426;-69
2023/04/17 12:45:13;;;;;;;2.97;2.40;;;18.20;75.90;;;;;;4887862;29;47995;-69